createdAt,value
2022-08-17T00:00:34.482Z,97063.84
2022-08-17T00:03:10.223Z,97058.91
2022-08-17T00:05:44.355Z,97073.84
2022-08-17T00:08:12.835Z,97075.75
2022-08-17T00:10:42.389Z,97060.75
2022-08-17T00:13:13.082Z,97070.22
2022-08-17T00:15:41.592Z,96949.91
2022-08-17T00:19:01.850Z,97070.44
2022-08-17T00:21:01.152Z,97062.19
2022-08-17T00:23:29.817Z,97073.00
2022-08-17T00:25:58.051Z,97025.44
2022-08-17T00:28:26.518Z,97072.03
2022-08-17T00:31:00.055Z,97076.41
2022-08-17T00:33:31.122Z,97075.56
2022-08-17T00:36:02.428Z,97054.38
2022-08-17T00:38:31.349Z,97006.34
2022-08-17T00:41:01.988Z,97032.00
2022-08-17T00:43:34.218Z,97076.44
2022-08-17T00:46:05.947Z,97056.94
2022-08-17T00:48:34.756Z,97069.91
2022-08-17T00:51:13.130Z,97076.00
2022-08-17T00:53:44.962Z,97075.84
2022-08-17T00:56:18.795Z,97077.06
2022-08-17T00:58:47.144Z,97073.81
2022-08-17T01:01:21.329Z,96945.25
2022-08-17T01:03:52.421Z,97074.03
2022-08-17T01:06:24.245Z,97055.75
2022-08-17T01:08:57.642Z,97028.16
2022-08-17T01:11:26.225Z,97075.28
2022-08-17T01:13:54.995Z,97079.63
2022-08-17T01:16:25.748Z,97017.25
2022-08-17T01:18:58.138Z,97078.53
2022-08-17T01:21:33.080Z,97069.44
2022-08-17T01:24:03.988Z,97078.78
2022-08-17T01:26:34.496Z,97096.72
2022-08-17T01:29:04.426Z,97082.41
2022-08-17T01:31:37.337Z,97084.22
2022-08-17T01:34:09.777Z,97080.09
2022-08-17T01:36:38.615Z,97079.63
2022-08-17T01:39:17.454Z,97078.06
2022-08-17T01:41:46.784Z,97083.03
2022-08-17T01:44:17.270Z,97058.41
2022-08-17T01:46:45.501Z,97091.13
2022-08-17T01:49:13.898Z,97086.53
2022-08-17T01:51:42.083Z,97086.16
2022-08-17T01:54:13.990Z,97087.84
2022-08-17T01:56:47.303Z,97081.81
2022-08-17T01:59:17.314Z,97072.44
2022-08-17T02:01:45.835Z,97078.91
2022-08-17T02:04:14.530Z,96998.81
2022-08-17T02:06:45.135Z,97063.41
2022-08-17T02:09:25.838Z,97078.53
2022-08-17T02:11:54.989Z,97080.97
2022-08-17T02:14:25.556Z,97028.75
2022-08-17T02:16:54.359Z,97079.38
2022-08-17T02:19:23.111Z,97084.69
2022-08-17T02:21:53.049Z,97057.69
2022-08-17T02:24:58.627Z,96959.53
2022-08-17T02:27:13.971Z,97080.03
2022-08-17T02:29:42.206Z,97080.28
2022-08-17T02:32:25.432Z,97060.13
2022-08-17T02:34:56.146Z,97080.50
2022-08-17T02:37:24.488Z,97055.19
2022-08-17T02:39:54.271Z,97070.56
2022-08-17T02:42:28.806Z,97074.41
2022-08-17T02:44:57.029Z,97075.88
2022-08-17T02:47:25.865Z,97070.69
2022-08-17T02:49:55.647Z,97045.09
2022-08-17T02:52:42.662Z,97056.44
2022-08-17T02:55:16.643Z,97084.91
2022-08-17T02:57:45.128Z,97065.72
2022-08-17T03:00:17.197Z,97088.75
2022-08-17T03:02:46.368Z,97083.31
2022-08-17T03:05:17.200Z,97084.06
2022-08-17T03:07:45.839Z,97081.03
2022-08-17T03:10:16.705Z,97072.34
2022-08-17T03:12:46.033Z,97079.28
2022-08-17T03:15:17.715Z,97078.66
2022-08-17T03:17:46.261Z,97006.09
2022-08-17T03:20:17.441Z,97070.03
2022-08-17T03:22:53.073Z,97080.59
2022-08-17T03:25:26.020Z,97084.81
2022-08-17T03:27:55.364Z,97083.75
2022-08-17T03:30:24.728Z,97078.00
2022-08-17T03:32:55.348Z,97059.97
2022-08-17T03:35:26.529Z,97077.22
2022-08-17T03:38:00.029Z,97059.44
2022-08-17T03:40:37.013Z,97033.00
2022-08-17T03:43:21.599Z,97071.06
2022-08-17T03:46:28.836Z,97071.81
2022-08-17T03:49:12.495Z,97074.69
2022-08-17T03:51:58.266Z,97073.00
2022-08-17T03:54:43.961Z,97059.97
2022-08-17T03:57:14.011Z,97091.66
2022-08-17T03:59:42.269Z,97064.69
2022-08-17T04:02:15.257Z,97059.66
2022-08-17T04:04:43.858Z,97065.41
2022-08-17T04:07:12.547Z,97068.78
2022-08-17T04:09:40.706Z,97078.19
2022-08-17T04:12:09.215Z,97076.75
2022-08-17T04:14:53.330Z,97074.31
2022-08-17T04:17:25.373Z,97080.00
2022-08-17T04:19:54.302Z,97026.66
2022-08-17T04:22:30.441Z,97087.88
2022-08-17T04:25:07.426Z,97085.44
2022-08-17T04:27:35.621Z,97058.69
2022-08-17T04:30:08.216Z,97098.81
2022-08-17T04:33:04.974Z,97100.44
2022-08-17T04:35:37.214Z,97102.13
2022-08-17T04:38:05.829Z,97092.00
2022-08-17T04:40:51.676Z,97093.75
2022-08-17T04:43:22.478Z,97006.69
2022-08-17T04:45:56.313Z,97097.50
2022-08-17T04:48:35.783Z,97096.31
2022-08-17T04:51:07.681Z,97029.63
2022-08-17T04:53:35.928Z,97090.13
2022-08-17T04:56:04.381Z,97092.81
2022-08-17T04:58:32.594Z,97092.47
2022-08-17T05:01:02.687Z,97086.50
2022-08-17T05:03:31.480Z,97102.50
2022-08-17T05:05:59.959Z,97100.81
2022-08-17T05:08:28.316Z,97111.22
2022-08-17T05:10:56.545Z,97111.81
2022-08-17T05:13:27.204Z,97049.59
2022-08-17T05:16:01.980Z,97015.34
2022-08-17T05:18:31.916Z,97093.19
2022-08-17T05:21:00.183Z,97110.53
2022-08-17T05:23:35.559Z,97009.00
2022-08-17T05:26:23.135Z,97105.38
2022-08-17T05:28:57.039Z,97112.59
2022-08-17T05:31:28.883Z,97075.53
2022-08-17T05:33:57.122Z,97111.72
2022-08-17T05:36:41.707Z,97112.56
2022-08-17T05:39:17.050Z,97109.88
2022-08-17T05:41:49.064Z,97100.69
2022-08-17T05:44:18.418Z,97110.50
2022-08-17T05:46:51.451Z,97108.44
2022-08-17T05:49:28.533Z,97110.91
2022-08-17T05:52:14.711Z,97114.41
2022-08-17T05:55:04.464Z,97119.13
2022-08-17T05:57:49.702Z,97115.38
2022-08-17T06:00:30.685Z,97094.25
2022-08-17T06:03:20.212Z,97054.66
2022-08-17T06:06:01.633Z,97055.56
2022-08-17T06:08:36.742Z,97094.97
2022-08-17T06:11:16.592Z,97106.53
2022-08-17T06:14:11.947Z,97095.59
2022-08-17T06:16:45.674Z,97103.19
2022-08-17T06:19:18.627Z,97004.41
2022-08-17T06:21:51.473Z,97084.03
2022-08-17T06:24:28.726Z,97099.53
2022-08-17T06:27:03.050Z,97101.75
2022-08-17T06:29:42.756Z,97098.47
2022-08-17T06:32:13.205Z,97096.34
2022-08-17T06:34:46.311Z,97094.31
2022-08-17T06:37:29.633Z,97095.28
2022-08-17T06:40:11.151Z,97084.31
2022-08-17T06:43:02.205Z,97098.81
2022-08-17T06:45:40.093Z,97102.19
2022-08-17T06:48:13.136Z,97098.38
2022-08-17T06:50:54.127Z,97085.94
2022-08-17T06:53:28.223Z,97086.91
2022-08-17T06:56:03.397Z,97080.38
2022-08-17T06:58:33.514Z,97080.19
2022-08-17T07:01:09.266Z,97092.47
2022-08-17T07:03:41.094Z,97092.16
2022-08-17T07:06:15.024Z,97090.00
2022-08-17T07:08:52.623Z,97086.50
2022-08-17T07:11:27.421Z,97060.66
2022-08-17T07:14:04.704Z,97089.88
2022-08-17T07:16:40.079Z,97073.84
2022-08-17T07:19:10.892Z,97077.22
2022-08-17T07:21:49.827Z,97077.31
2022-08-17T07:24:33.362Z,97079.47
2022-08-17T07:27:08.127Z,97065.34
2022-08-17T07:29:40.534Z,97087.06
2022-08-17T07:32:11.183Z,97083.16
2022-08-17T07:35:23.257Z,97080.13
2022-08-17T07:38:24.707Z,97077.84
2022-08-17T07:41:04.845Z,97072.63
2022-08-17T07:43:35.709Z,97078.19
2022-08-17T07:46:35.197Z,97081.34
2022-08-17T07:49:25.754Z,97088.03
2022-08-17T07:52:47.612Z,97077.59
2022-08-17T07:54:50.733Z,97092.81
2022-08-17T07:57:33.018Z,97076.19
2022-08-17T08:00:31.544Z,97074.00
2022-08-17T08:03:17.123Z,97068.13
2022-08-17T08:05:57.516Z,97081.19
2022-08-17T08:08:34.273Z,97069.06
2022-08-17T08:11:10.245Z,97064.34
2022-08-17T08:13:42.880Z,97082.16
2022-08-17T08:16:22.789Z,97099.53
2022-08-17T08:18:54.285Z,97087.69
2022-08-17T08:21:32.836Z,97058.00
2022-08-17T08:24:13.622Z,97105.78
2022-08-17T08:26:51.043Z,97098.53
2022-08-17T08:29:31.990Z,97097.38
2022-08-17T08:32:14.876Z,97093.19
2022-08-17T08:35:02.932Z,97082.59
2022-08-17T08:37:43.137Z,97078.75
2022-08-17T08:40:26.362Z,97077.91
2022-08-17T08:43:04.675Z,97086.69
2022-08-17T08:45:44.803Z,97040.19
2022-08-17T08:48:52.878Z,97069.97
2022-08-17T08:51:23.054Z,97037.47
2022-08-17T08:54:03.454Z,97096.66
2022-08-17T08:56:38.726Z,97088.72
2022-08-17T08:59:21.488Z,97078.22
2022-08-17T09:02:01.120Z,97077.22
2022-08-17T09:05:10.643Z,97098.94
2022-08-17T09:07:45.017Z,97094.38
2022-08-17T09:10:24.720Z,97098.03
2022-08-17T09:13:10.074Z,97091.97
2022-08-17T09:15:45.621Z,97076.91
2022-08-17T09:19:01.563Z,97086.81
2022-08-17T09:21:18.181Z,97073.13
2022-08-17T09:24:00.061Z,97082.72
2022-08-17T09:26:35.850Z,97067.66
2022-08-17T09:29:10.120Z,97094.00
2022-08-17T09:31:48.742Z,96897.25
2022-08-17T09:34:33.304Z,97094.16
2022-08-17T09:37:12.366Z,97076.94
2022-08-17T09:39:47.759Z,97074.81
2022-08-17T09:42:22.881Z,97058.72
2022-08-17T09:44:59.771Z,97073.34
2022-08-17T09:47:34.807Z,97004.69
2022-08-17T09:50:09.539Z,97056.25
2022-08-17T09:52:37.791Z,97077.97
2022-08-17T09:55:07.359Z,97073.59
2022-08-17T09:57:59.364Z,97073.06
2022-08-17T10:00:35.281Z,97058.50
2022-08-17T10:03:29.124Z,97012.81
2022-08-17T10:06:06.504Z,97069.19
2022-08-17T10:08:43.132Z,97067.63
2022-08-17T10:11:50.383Z,97003.19
2022-08-17T10:14:37.358Z,97054.81
2022-08-17T10:17:21.857Z,97054.91
2022-08-17T10:19:59.537Z,97050.38
2022-08-17T10:22:53.365Z,97041.38
2022-08-17T10:25:54.672Z,96984.44
2022-08-17T10:28:30.220Z,97028.16
2022-08-17T10:31:33.320Z,97042.25
2022-08-17T10:34:02.532Z,97031.50
2022-08-17T10:36:48.476Z,97008.84
2022-08-17T10:39:25.647Z,97045.06
2022-08-17T10:41:59.073Z,97038.19
2022-08-17T10:44:50.252Z,97044.97
2022-08-17T10:47:20.637Z,97029.31
2022-08-17T10:49:52.614Z,97030.16
2022-08-17T10:52:50.274Z,97048.56
2022-08-17T10:55:20.548Z,97028.13
2022-08-17T10:57:51.422Z,97031.78
2022-08-17T11:01:04.146Z,97037.66
2022-08-17T11:03:33.473Z,97028.50
2022-08-17T11:06:12.884Z,97021.41
2022-08-17T11:09:27.867Z,97012.38
2022-08-17T11:12:16.340Z,97002.47
2022-08-17T11:15:00.608Z,96987.72
2022-08-17T11:17:49.866Z,96993.38
2022-08-17T11:20:36.009Z,97014.34
2022-08-17T11:23:28.758Z,96992.75
2022-08-17T11:26:04.468Z,97006.38
2022-08-17T11:28:36.067Z,96978.84
2022-08-17T11:31:11.101Z,97001.63
2022-08-17T11:34:04.782Z,96970.75
2022-08-17T11:36:52.093Z,96989.75
2022-08-17T11:39:55.794Z,96996.16
2022-08-17T11:42:39.134Z,96992.25
2022-08-17T11:45:47.956Z,96986.69
2022-08-17T11:48:44.203Z,96985.91
2022-08-17T11:51:33.319Z,96986.28
2022-08-17T11:54:31.690Z,96959.06
2022-08-17T11:56:54.976Z,96983.94
2022-08-17T12:00:06.306Z,96969.28
2022-08-17T12:02:48.063Z,96975.47
2022-08-17T12:05:36.084Z,96951.28
2022-08-17T12:08:15.346Z,96973.59
2022-08-17T12:11:03.538Z,96963.22
2022-08-17T12:13:35.212Z,96947.88
2022-08-17T12:16:10.138Z,96963.06
2022-08-17T12:18:42.019Z,96928.56
2022-08-17T12:21:28.134Z,96959.91
2022-08-17T12:24:06.654Z,96908.84
2022-08-17T12:26:37.168Z,96974.22
2022-08-17T12:29:09.200Z,96970.59
2022-08-17T12:31:46.104Z,96963.47
2022-08-17T12:34:19.119Z,96938.78
2022-08-17T12:36:50.505Z,96962.09
2022-08-17T12:39:22.886Z,96928.19
2022-08-17T12:42:01.973Z,96959.41
2022-08-17T12:44:33.458Z,96931.69
2022-08-17T12:47:09.879Z,96953.88
2022-08-17T12:49:41.063Z,96956.25
2022-08-17T12:52:14.794Z,96945.59
2022-08-17T12:54:54.662Z,96958.81
2022-08-17T12:57:25.667Z,96940.59
2022-08-17T12:59:59.090Z,96940.56
2022-08-17T13:02:43.816Z,96929.66
2022-08-17T13:05:30.967Z,96915.09
2022-08-17T13:08:01.157Z,96951.19
2022-08-17T13:10:33.026Z,96941.81
2022-08-17T13:13:05.133Z,96929.03
2022-08-17T13:15:44.432Z,96948.44
2022-08-17T13:18:39.175Z,96922.47
2022-08-17T13:21:12.403Z,96940.69
2022-08-17T13:23:46.548Z,96936.47
2022-08-17T13:26:30.210Z,96926.81
2022-08-17T13:28:59.137Z,96937.78
2022-08-17T13:31:41.388Z,96934.66
2022-08-17T13:34:38.723Z,96918.56
2022-08-17T13:37:32.801Z,96919.69
2022-08-17T13:40:05.043Z,96919.00
2022-08-17T13:42:51.727Z,96916.66
2022-08-17T13:45:53.145Z,96914.22
2022-08-17T13:48:25.963Z,96855.91
2022-08-17T13:51:18.480Z,96921.34
2022-08-17T13:54:02.481Z,96891.44
2022-08-17T13:56:48.025Z,96860.06
2022-08-17T13:59:38.199Z,96908.47
2022-08-17T14:02:15.959Z,96911.88
2022-08-17T14:04:45.904Z,96907.72
2022-08-17T14:07:32.300Z,96898.59
2022-08-17T14:10:04.083Z,96879.59
2022-08-17T14:12:34.479Z,96908.19
2022-08-17T14:15:03.092Z,96917.09
2022-08-17T14:17:36.359Z,96914.94
2022-08-17T14:20:09.609Z,96895.59
2022-08-17T14:22:41.574Z,96889.47
2022-08-17T14:25:12.481Z,96867.66
2022-08-17T14:27:41.887Z,96905.06
2022-08-17T14:30:21.998Z,96894.97
2022-08-17T14:32:52.101Z,96892.22
2022-08-17T14:35:22.701Z,96834.25
2022-08-17T14:37:53.152Z,96882.06
2022-08-17T14:40:25.151Z,96876.88
2022-08-17T14:42:55.340Z,96861.19
2022-08-17T14:45:30.186Z,96879.47
2022-08-17T14:48:01.142Z,96877.25
2022-08-17T14:50:29.377Z,96878.47
2022-08-17T14:52:59.217Z,96878.28
2022-08-17T14:55:31.210Z,96873.56
2022-08-17T14:57:59.143Z,96875.13
2022-08-17T15:00:27.387Z,96877.88
2022-08-17T15:02:58.264Z,96878.66
2022-08-17T15:05:27.801Z,96874.19
2022-08-17T15:07:55.962Z,96869.38
2022-08-17T15:10:26.056Z,96877.56
2022-08-17T15:12:54.628Z,96870.34
2022-08-17T15:15:22.656Z,96877.59
2022-08-17T15:17:51.386Z,96877.34
2022-08-17T15:20:20.861Z,96874.28
2022-08-17T15:22:50.298Z,96870.41
2022-08-17T15:25:19.397Z,96877.25
2022-08-17T15:27:48.947Z,96872.16
2022-08-17T15:30:17.315Z,96877.00
2022-08-17T15:32:50.965Z,96878.91
2022-08-17T15:35:28.250Z,96864.88
2022-08-17T15:37:57.230Z,96862.66
2022-08-17T15:40:25.284Z,96867.09
2022-08-17T15:42:54.621Z,96864.84
2022-08-17T15:45:24.719Z,96866.25
2022-08-17T15:47:53.251Z,96869.78
2022-08-17T15:50:21.284Z,96861.94
2022-08-17T15:52:54.935Z,96867.38
2022-08-17T15:55:24.273Z,96856.63
2022-08-17T15:57:53.379Z,96861.81
2022-08-17T16:00:24.125Z,96860.75
2022-08-17T16:03:44.311Z,96856.34
2022-08-17T16:05:40.691Z,96857.41
2022-08-17T16:08:09.066Z,96852.72
2022-08-17T16:10:37.249Z,96850.53
2022-08-17T16:13:06.001Z,96850.53
2022-08-17T16:15:54.828Z,96839.47
2022-08-17T16:18:25.857Z,96855.69
2022-08-17T16:20:55.143Z,96844.19
2022-08-17T16:23:23.125Z,96845.75
2022-08-17T16:25:53.934Z,96850.78
2022-08-17T16:28:35.868Z,96848.31
2022-08-17T16:31:07.971Z,96846.25
2022-08-17T16:33:37.744Z,96849.88
2022-08-17T16:36:05.841Z,96847.16
2022-08-17T16:38:33.900Z,96798.81
2022-08-17T16:41:01.872Z,96845.00
2022-08-17T16:43:30.197Z,96844.00
2022-08-17T16:45:58.444Z,96841.91
2022-08-17T16:48:29.017Z,96845.00
2022-08-17T16:51:03.111Z,96853.53
2022-08-17T16:53:32.965Z,96854.25
2022-08-17T16:56:00.927Z,96852.06
2022-08-17T16:58:29.292Z,96856.13
2022-08-17T17:00:59.650Z,96852.63
2022-08-17T17:03:32.201Z,96860.53
2022-08-17T17:06:06.543Z,96864.19
2022-08-17T17:08:39.473Z,96866.38
2022-08-17T17:11:13.979Z,96862.50
2022-08-17T17:13:44.670Z,96870.88
2022-08-17T17:16:15.664Z,96863.50
2022-08-17T17:18:52.316Z,96867.66
2022-08-17T17:21:25.076Z,96870.13
2022-08-17T17:23:56.605Z,96867.75
2022-08-17T17:26:36.610Z,96869.59
2022-08-17T17:29:18.479Z,96877.19
2022-08-17T17:31:52.596Z,96873.13
2022-08-17T17:34:22.454Z,96875.13
2022-08-17T17:36:51.730Z,96876.94
2022-08-17T17:39:21.069Z,96888.09
2022-08-17T17:41:50.887Z,96887.16
2022-08-17T17:44:21.299Z,96879.75
2022-08-17T17:46:54.497Z,96876.47
2022-08-17T17:49:24.905Z,96881.16
2022-08-17T17:52:09.888Z,96873.34
2022-08-17T17:54:52.363Z,96870.19
2022-08-17T17:57:28.300Z,96881.72
2022-08-17T18:00:05.258Z,96887.75
2022-08-17T18:02:51.603Z,96632.44
2022-08-17T18:06:01.150Z,96887.00
2022-08-17T18:08:49.412Z,96889.75
2022-08-17T18:11:24.408Z,96900.66
2022-08-17T18:14:04.292Z,96892.22
2022-08-17T18:16:33.638Z,96876.91
2022-08-17T18:19:02.348Z,96895.50
2022-08-17T18:21:36.237Z,96894.53
2022-08-17T18:24:06.016Z,96886.50
2022-08-17T18:26:39.504Z,96892.09
2022-08-17T18:29:15.992Z,96895.53
2022-08-17T18:31:43.963Z,96896.22
2022-08-17T18:34:45.468Z,96890.69
2022-08-17T18:37:11.688Z,96891.78
2022-08-17T18:39:44.298Z,96888.22
2022-08-17T18:42:27.056Z,96889.56
2022-08-17T18:44:55.863Z,96886.75
2022-08-17T18:47:25.106Z,96890.81
2022-08-17T18:49:57.754Z,96887.31
2022-08-17T18:52:29.195Z,96885.81
2022-08-17T18:55:02.107Z,96887.88
2022-08-17T18:57:32.723Z,96886.69
2022-08-17T19:00:01.288Z,96886.00
2022-08-17T19:02:46.135Z,96886.88
2022-08-17T19:05:26.300Z,96885.72
2022-08-17T19:07:56.022Z,96879.81
2022-08-17T19:10:25.798Z,96879.81
2022-08-17T19:13:00.484Z,96878.13
2022-08-17T19:15:34.741Z,96874.78
2022-08-17T19:18:04.702Z,96882.03
2022-08-17T19:20:35.555Z,96886.72
2022-08-17T19:23:13.534Z,96868.41
2022-08-17T19:25:44.464Z,96887.44
2022-08-17T19:28:22.238Z,96887.75
2022-08-17T19:30:51.908Z,96886.69
2022-08-17T19:33:21.023Z,96888.53
2022-08-17T19:35:54.370Z,96892.25
2022-08-17T19:38:28.886Z,96893.41
2022-08-17T19:41:02.000Z,96903.50
2022-08-17T19:43:36.017Z,96910.19
2022-08-17T19:46:06.445Z,96913.72
2022-08-17T19:48:41.597Z,96924.47
2022-08-17T19:51:11.932Z,96931.38
2022-08-17T19:54:04.478Z,96948.88
2022-08-17T19:56:37.205Z,96942.63
2022-08-17T19:59:10.758Z,96951.84
2022-08-17T20:01:42.567Z,96969.13
2022-08-17T20:04:14.479Z,96969.91
2022-08-17T20:06:45.323Z,96978.94
2022-08-17T20:09:19.910Z,96983.94
2022-08-17T20:11:50.298Z,96988.16
2022-08-17T20:14:21.967Z,96991.63
2022-08-17T20:16:50.013Z,96992.47
2022-08-17T20:19:22.418Z,96986.59
2022-08-17T20:21:53.732Z,96997.19
2022-08-17T20:24:27.142Z,96994.88
2022-08-17T20:26:58.424Z,96999.25
2022-08-17T20:29:39.706Z,96999.34
2022-08-17T20:32:15.097Z,96989.06
2022-08-17T20:34:46.541Z,96989.91
2022-08-17T20:37:27.463Z,96996.59
2022-08-17T20:40:10.299Z,97007.31
2022-08-17T20:42:39.817Z,97020.91
2022-08-17T20:45:23.869Z,97010.84
2022-08-17T20:48:18.734Z,97019.78
2022-08-17T20:50:44.981Z,97017.44
2022-08-17T20:53:15.071Z,97012.50
2022-08-17T20:55:54.946Z,97023.25
2022-08-17T20:58:46.768Z,97013.97
2022-08-17T21:01:17.474Z,97012.00
2022-08-17T21:03:51.919Z,96998.56
2022-08-17T21:06:21.502Z,97008.94
2022-08-17T21:08:53.857Z,97005.47
2022-08-17T21:11:57.303Z,97006.94
2022-08-17T21:14:42.173Z,97015.84
2022-08-17T21:17:20.053Z,97016.38
2022-08-17T21:20:10.395Z,97019.91
2022-08-17T21:22:47.399Z,97013.91
2022-08-17T21:25:27.587Z,97009.16
2022-08-17T21:28:02.828Z,97009.03
2022-08-17T21:30:48.299Z,97001.94
2022-08-17T21:33:21.561Z,97017.84
2022-08-17T21:35:52.644Z,97019.38
2022-08-17T21:38:22.205Z,97011.84
2022-08-17T21:40:51.838Z,97018.09
2022-08-17T21:43:25.041Z,97027.16
2022-08-17T21:46:00.000Z,97030.84
2022-08-17T21:48:28.921Z,97029.84
2022-08-17T21:51:02.098Z,97029.91
2022-08-17T21:53:35.310Z,97032.25
2022-08-17T21:56:05.072Z,97030.44
2022-08-17T21:58:34.919Z,97034.72
2022-08-17T22:01:22.434Z,97034.59
2022-08-17T22:03:56.951Z,97036.81
2022-08-17T22:06:28.286Z,97030.91
2022-08-17T22:09:00.823Z,97031.59
2022-08-17T22:11:29.416Z,97027.41
2022-08-17T22:14:05.521Z,97018.09
2022-08-17T22:16:37.857Z,97019.38
2022-08-17T22:19:06.834Z,97013.63
2022-08-17T22:21:35.149Z,97009.94
2022-08-17T22:24:07.448Z,97010.25
2022-08-17T22:26:54.042Z,97000.91
2022-08-17T22:29:42.748Z,97006.16
2022-08-17T22:32:13.584Z,96995.47
2022-08-17T22:34:41.658Z,97025.81
2022-08-17T22:37:27.244Z,96981.84
2022-08-17T22:39:58.673Z,96975.47
2022-08-17T22:42:27.918Z,96967.31
2022-08-17T22:44:55.917Z,96958.72
2022-08-17T22:47:33.014Z,96939.69
2022-08-17T22:50:03.326Z,96929.13
2022-08-17T22:52:35.236Z,96937.84
2022-08-17T22:55:22.950Z,96925.47
2022-08-17T22:58:08.574Z,96930.97
2022-08-17T23:00:38.674Z,96940.84
2022-08-17T23:03:10.705Z,96954.25
2022-08-17T23:05:39.967Z,96960.88
2022-08-17T23:08:08.000Z,96968.06
2022-08-17T23:10:37.554Z,96976.69
2022-08-17T23:13:05.618Z,96971.09
2022-08-17T23:15:34.137Z,96981.22
2022-08-17T23:18:05.400Z,96984.75
2022-08-17T23:20:37.115Z,96992.78
2022-08-17T23:23:05.738Z,97010.16
2022-08-17T23:25:34.516Z,97008.63
2022-08-17T23:28:03.074Z,97013.13
2022-08-17T23:30:32.061Z,97016.09
2022-08-17T23:33:01.353Z,97018.34
2022-08-17T23:35:39.074Z,97006.78
2022-08-17T23:38:10.977Z,97014.09
2022-08-17T23:40:39.550Z,97012.69
2022-08-17T23:43:23.623Z,97019.88
2022-08-17T23:45:53.480Z,97014.22
2022-08-17T23:48:35.416Z,97031.13
2022-08-17T23:51:06.003Z,97026.78
2022-08-17T23:53:36.433Z,97036.66
2022-08-17T23:56:10.283Z,97043.69
2022-08-17T23:58:39.224Z,97035.25
